Time;durP1;ratioP1;P1;durP2;ratioP2;P2;SDS_P1;SDS_P2;PMS_P1;PMS_P2;Temp;Humidity;BMP_temperature;BMP_pressure;BME280_temperature;BME280_humidity;BME280_pressure;Samples;Min_cycle;Max_cycle;Signal;HPM_P1;HPM_P2
2021/12/18 00:00:13;;;;;;;73.25;30.10;;;;;;;6.12;98.52;103715.34;4986095;28;20038;-72
2021/12/18 00:02:42;;;;;;;70.88;30.75;;;;;;;6.11;98.50;103709.34;4987675;28;20046;-71
2021/12/18 00:05:08;;;;;;;68.32;30.95;;;;;;;6.13;98.77;103704.16;4988412;28;20034;-71
2021/12/18 00:07:35;;;;;;;72.82;29.83;;;;;;;6.13;98.42;103707.56;4991367;28;20034;-71
2021/12/18 00:10:01;;;;;;;68.95;29.83;;;;;;;6.14;98.43;103710.97;4992119;28;20121;-72
2021/12/18 00:12:27;;;;;;;68.38;29.63;;;;;;;6.15;98.52;103712.66;4968669;28;20481;-72
2021/12/18 00:14:52;;;;;;;66.93;29.25;;;;;;;6.23;98.02;103713.22;4980736;28;20057;-71
2021/12/18 00:17:18;;;;;;;65.85;28.40;;;;;;;6.26;97.83;103709.69;4987969;28;20026;-71
2021/12/18 00:19:44;;;;;;;71.88;30.17;;;;;;;6.23;97.92;103714.06;4989608;28;20448;-71
2021/12/18 00:22:10;;;;;;;61.85;27.02;;;;;;;6.23;98.28;103716.66;4970580;28;20085;-71
2021/12/18 00:24:35;;;;;;;65.88;28.65;;;;;;;6.27;97.79;103719.91;4989996;28;20054;-71
2021/12/18 00:27:01;;;;;;;70.38;29.17;;;;;;;6.46;97.36;103719.25;4985435;28;20409;-71
2021/12/18 00:29:28;;;;;;;64.90;28.30;;;;;;;6.41;96.63;103716.84;4990179;28;20030;-71
2021/12/18 00:31:54;;;;;;;64.15;27.10;;;;;;;6.43;96.86;103720.22;4985980;28;20082;-71
2021/12/18 00:34:20;;;;;;;66.28;28.20;;;;;;;6.32;96.84;103714.63;4990954;28;20019;-71
2021/12/18 00:36:45;;;;;;;66.65;27.60;;;;;;;6.28;97.47;103718.22;4973505;28;20366;-71
2021/12/18 00:39:12;;;;;;;62.75;26.02;;;;;;;6.24;97.74;103713.16;4990423;28;20385;-71
2021/12/18 00:44:12;;;;;;;61.10;25.23;;;;;;;6.20;97.95;103721.06;4989832;28;20535;-71
2021/12/18 00:46:42;;;;;;;62.78;26.52;;;;;;;6.19;98.43;103719.38;4989776;28;20038;-71
2021/12/18 00:49:11;;;;;;;63.20;25.98;;;;;;;6.18;98.62;103720.28;4991995;28;20033;-71
2021/12/18 00:51:37;;;;;;;60.67;25.30;;;;;;;6.17;98.34;103718.59;4989367;28;20108;-71
2021/12/18 00:54:04;;;;;;;66.95;27.73;;;;;;;6.16;98.78;103707.44;4991397;28;20022;-71
2021/12/18 00:56:37;;;;;;;63.88;27.73;;;;;;;6.15;98.92;103708.34;5110094;27;20632;-72
2021/12/18 00:59:02;;;;;;;63.55;27.77;;;;;;;6.17;98.78;103713.44;5094761;28;20123;-71
2021/12/18 01:01:29;;;;;;;67.85;27.27;;;;;;;6.16;99.16;103710.03;5090425;28;20610;-71
2021/12/18 01:03:56;;;;;;;58.65;26.05;;;;;;;6.16;98.92;103716.91;5103606;28;20093;-71
2021/12/18 01:06:23;;;;;;;63.55;27.15;;;;;;;6.17;99.23;103713.44;5087502;28;20379;-71
2021/12/18 01:08:53;;;;;;;65.03;26.70;;;;;;;6.16;99.25;103706.59;5092521;28;20032;-71
2021/12/18 01:14:05;;;;;;;62.80;26.02;;;;;;;6.17;99.38;103705.72;5102520;28;20032;-71
2021/12/18 01:16:50;;;;;;;62.22;26.35;;;;;;;6.16;99.35;103702.31;5089846;28;20029;-71
2021/12/18 01:24:45;;;;;;;61.13;25.95;;;;;;;6.17;99.53;103714.28;5086724;28;20576;-71
2021/12/18 01:27:10;;;;;;;63.40;26.67;;;;;;;6.17;99.50;103708.28;5086436;28;20098;-69
2021/12/18 01:29:36;;;;;;;63.70;25.70;;;;;;;6.17;99.73;103710.88;5087005;28;20028;-69
2021/12/18 01:32:03;;;;;;;66.07;26.77;;;;;;;6.17;99.32;103711.69;5086634;28;20119;-69
2021/12/18 01:34:29;;;;;;;70.05;28.85;;;;;;;6.18;99.37;103708.22;5086216;28;20040;-69
2021/12/18 01:36:54;;;;;;;63.42;26.33;;;;;;;6.16;99.61;103704.88;5086354;28;20123;-69
2021/12/18 01:39:20;;;;;;;65.38;27.92;;;;;;;6.17;99.64;103709.13;5085757;28;20056;-69
2021/12/18 01:44:52;;;;;;;62.97;27.00;;;;;;;6.18;99.58;103709.97;5086107;28;20032;-69
2021/12/18 01:52:52;;;;;;;66.03;26.13;;;;;;;6.15;100.00;103697.19;5087089;28;20032;-69
2021/12/18 01:55:19;;;;;;;61.13;26.00;;;;;;;6.16;99.85;103699.72;5095962;28;20524;-69
2021/12/18 01:57:45;;;;;;;58.38;25.30;;;;;;;6.18;100.00;103704.81;5086203;28;20024;-69
2021/12/18 02:00:20;;;;;;;65.88;26.00;;;;;;;6.19;99.85;103701.34;5102876;28;20071;-69
2021/12/18 02:02:46;;;;;;;63.58;26.63;;;;;;;6.18;99.71;103697.09;5095396;28;20405;-69
2021/12/18 02:05:12;;;;;;;64.47;25.52;;;;;;;6.18;100.00;103697.09;5091965;28;20020;-69
2021/12/18 02:07:40;;;;;;;69.25;27.20;;;;;;;6.17;99.95;103692.81;5086150;28;20036;-69
2021/12/18 02:10:10;;;;;;;63.45;27.15;;;;;;;6.16;99.89;103685.97;5079531;28;20116;-69
2021/12/18 02:12:47;;;;;;;73.53;28.15;;;;;;;6.18;99.90;103687.63;5069488;28;20033;-69
2021/12/18 02:20:45;;;;;;;59.85;24.88;;;;;;;6.19;99.89;103691.84;5064190;28;20134;-69
2021/12/18 02:23:11;;;;;;;60.50;26.05;;;;;;;6.18;99.67;103687.63;5075117;28;20028;-69
2021/12/18 02:25:37;;;;;;;66.85;27.15;;;;;;;6.19;99.75;103688.44;5072498;28;20043;-69
2021/12/18 02:28:13;;;;;;;59.80;25.15;;;;;;;6.18;99.66;103691.94;5080680;28;20032;-69
2021/12/18 02:30:47;;;;;;;63.00;24.83;;;;;;;6.19;99.96;103697.00;5080164;28;20089;-69
2021/12/18 02:33:12;;;;;;;62.80;25.98;;;;;;;6.19;99.84;103694.44;5087980;28;20032;-69
2021/12/18 02:35:46;;;;;;;62.25;25.83;;;;;;;6.19;99.56;103694.44;5071281;28;20078;-69
2021/12/18 02:38:20;;;;;;;58.65;25.65;;;;;;;6.18;99.89;103687.63;5077689;28;20032;-69
2021/12/18 02:41:02;;;;;;;58.95;23.85;;;;;;;6.18;99.76;103681.63;5069775;28;20090;-69
2021/12/18 02:43:36;;;;;;;64.87;27.20;;;;;;;6.18;99.72;103694.53;5070351;28;20040;-69
2021/12/18 02:46:06;;;;;;;63.50;26.48;;;;;;;6.17;100.00;103688.50;5076057;28;20112;-69
2021/12/18 02:48:37;;;;;;;63.45;26.27;;;;;;;6.17;100.00;103688.50;5072620;28;20514;-69
2021/12/18 02:51:05;;;;;;;71.00;26.40;;;;;;;6.18;99.77;103679.06;5077620;28;20180;-69
2021/12/18 02:53:32;;;;;;;60.30;24.40;;;;;;;6.18;99.86;103685.03;5074332;28;20135;-69
2021/12/18 02:56:00;;;;;;;59.67;24.77;;;;;;;6.19;100.00;103683.31;5072257;28;20033;-69
2021/12/18 02:58:26;;;;;;;65.65;26.35;;;;;;;6.20;100.00;103674.69;5075609;28;20044;-69
2021/12/18 03:00:54;;;;;;;63.78;25.77;;;;;;;6.20;100.00;103678.09;5078041;28;20028;-69
2021/12/18 03:03:23;;;;;;;63.15;25.58;;;;;;;6.21;100.00;103676.34;5075083;28;20039;-69
2021/12/18 03:06:45;;;;;;;63.80;26.17;;;;;;;6.21;100.00;103669.44;5074780;28;20718;-69
2021/12/18 03:25:02;;;;;;;67.75;26.85;;;;;;;6.25;100.00;103672.75;5078771;28;20035;-69
2021/12/18 03:27:27;;;;;;;65.47;24.75;;;;;;;6.24;100.00;103663.38;5073740;28;20043;-69
2021/12/18 03:29:55;;;;;;;60.65;25.05;;;;;;;6.23;100.00;103659.94;5075707;28;20036;-69
2021/12/18 03:32:22;;;;;;;65.80;26.10;;;;;;;6.24;100.00;103660.78;5088661;28;20112;-69
2021/12/18 03:34:48;;;;;;;64.00;25.40;;;;;;;6.23;100.00;103662.53;5078645;28;20017;-69
2021/12/18 03:37:13;;;;;;;64.72;25.55;;;;;;;6.23;100.00;103667.69;5072787;28;20028;-69
2021/12/18 03:39:39;;;;;;;61.67;24.52;;;;;;;6.26;100.00;103666.72;5075833;28;20101;-69
2021/12/18 03:42:06;;;;;;;67.25;25.40;;;;;;;6.24;100.00;103651.31;5078199;28;20035;-69
2021/12/18 03:44:33;;;;;;;67.75;25.88;;;;;;;6.24;100.00;103646.16;5067525;28;20036;-69
2021/12/18 03:46:59;;;;;;;66.03;25.88;;;;;;;6.26;100.00;103650.44;5068386;28;20036;-69
2021/12/18 03:49:25;;;;;;;68.00;25.58;;;;;;;6.25;100.00;103646.97;5067549;28;20024;-69
2021/12/18 03:51:51;;;;;;;63.15;25.05;;;;;;;6.26;100.00;103642.69;5073734;28;20059;-69
2021/12/18 03:54:17;;;;;;;62.05;25.63;;;;;;;6.26;100.00;103647.84;5087705;28;20097;-69
2021/12/18 03:56:43;;;;;;;66.82;25.88;;;;;;;6.26;100.00;103647.84;5062630;28;20514;-69
2021/12/18 03:59:08;;;;;;;71.82;26.25;;;;;;;6.26;100.00;103642.69;5076446;28;20247;-69
2021/12/18 04:01:34;;;;;;;75.20;28.98;;;;;;;6.31;100.00;103644.19;5066260;28;20106;-69
2021/12/18 04:04:00;;;;;;;72.93;28.20;;;;;;;6.34;100.00;103653.53;5068762;28;20044;-69
2021/12/18 04:06:26;;;;;;;73.53;27.70;;;;;;;6.34;100.00;103650.97;5074268;28;20052;-69
2021/12/18 04:08:51;;;;;;;77.20;27.52;;;;;;;6.36;100.00;103649.16;5069636;28;20047;-68
2021/12/18 04:11:17;;;;;;;74.00;27.83;;;;;;;6.33;100.00;103650.13;5072941;28;20123;-69
2021/12/18 04:13:47;;;;;;;72.07;26.83;;;;;;;6.28;100.00;103651.19;5073321;28;20024;-69
2021/12/18 04:16:13;;;;;;;68.78;25.30;;;;;;;6.28;100.00;103657.19;5072071;28;20032;-69
2021/12/18 04:18:40;;;;;;;69.55;26.70;;;;;;;6.27;100.00;103655.50;5084130;28;20028;-69
2021/12/18 04:21:05;;;;;;;65.82;25.50;;;;;;;6.25;100.00;103659.88;5072340;28;20078;-69
2021/12/18 04:23:31;;;;;;;66.15;27.00;;;;;;;6.26;100.00;103663.31;5079309;28;20032;-69
2021/12/18 04:25:57;;;;;;;64.35;24.63;;;;;;;6.23;100.00;103677.13;5084325;28;20513;-70
2021/12/18 04:28:23;;;;;;;64.35;25.45;;;;;;;6.22;100.00;103672.88;5071778;28;20060;-69
2021/12/18 04:30:50;;;;;;;64.03;23.75;;;;;;;6.21;100.00;103672.03;5073268;28;20036;-69
2021/12/18 04:33:16;;;;;;;64.00;25.52;;;;;;;6.23;100.00;103674.56;5073365;28;20144;-69
2021/12/18 04:35:42;;;;;;;68.35;24.67;;;;;;;6.22;100.00;103676.31;5081871;28;20529;-69
2021/12/18 04:38:07;;;;;;;66.90;25.27;;;;;;;6.22;100.00;103666.00;5080392;28;20715;-69
2021/12/18 04:40:35;;;;;;;67.85;24.52;;;;;;;6.22;100.00;103670.31;5074693;28;20028;-69
2021/12/18 04:43:02;;;;;;;68.18;25.48;;;;;;;6.24;100.00;103671.94;5082673;28;20447;-69
2021/12/18 04:45:28;;;;;;;73.00;25.38;;;;;;;6.23;100.00;103677.13;5061517;28;20029;-69
2021/12/18 04:47:54;;;;;;;72.53;26.10;;;;;;;6.23;100.00;103674.56;5065275;28;20529;-69
2021/12/18 04:50:20;;;;;;;79.40;27.52;;;;;;;6.26;100.00;103682.19;5063781;28;20130;-69
2021/12/18 04:52:46;;;;;;;75.32;26.45;;;;;;;6.23;100.00;103672.84;5069445;28;20074;-69
2021/12/18 04:55:12;;;;;;;78.55;27.98;;;;;;;6.25;100.00;103683.06;5075643;28;20593;-69
2021/12/18 04:57:38;;;;;;;78.35;27.92;;;;;;;6.26;100.00;103681.34;5066963;28;20119;-69
2021/12/18 05:00:07;;;;;;;77.57;26.70;;;;;;;6.27;100.00;103680.44;5075054;28;20063;-69
2021/12/18 05:02:37;;;;;;;94.00;27.95;;;;;;;6.23;100.00;103677.13;5070930;28;20510;-69
2021/12/18 05:05:04;;;;;;;83.18;27.40;;;;;;;6.28;100.00;103676.97;5073738;28;20366;-69
2021/12/18 05:07:30;;;;;;;91.53;29.77;;;;;;;6.33;100.00;103677.63;5079979;28;20118;-69
2021/12/18 05:09:55;;;;;;;82.22;28.30;;;;;;;6.32;100.00;103684.53;5075984;28;20691;-69
2021/12/18 05:12:21;;;;;;;82.30;26.13;;;;;;;6.28;100.00;103674.41;5072010;28;20393;-69
2021/12/18 05:14:47;;;;;;;86.70;28.15;;;;;;;6.24;100.00;103679.66;5079460;28;20101;-69
2021/12/18 05:17:12;;;;;;;87.00;28.75;;;;;;;6.26;100.00;103681.34;5073412;28;20028;-69
2021/12/18 05:19:38;;;;;;;86.72;28.38;;;;;;;6.34;100.00;103679.31;5074477;28;20032;-69
2021/12/18 05:22:04;;;;;;;87.57;30.00;;;;;;;6.27;100.00;103683.84;5072377;28;20032;-69
2021/12/18 05:24:30;;;;;;;94.70;29.27;;;;;;;6.28;100.00;103684.69;5075191;28;20490;-69
2021/12/18 05:26:56;;;;;;;105.03;31.17;;;;;;;6.31;100.00;103679.41;5076326;28;20035;-69
2021/12/18 05:29:22;;;;;;;89.93;30.63;;;;;;;6.30;100.00;103676.00;5077076;28;20121;-69
2021/12/18 05:31:47;;;;;;;93.53;29.48;;;;;;;6.24;100.00;103677.06;5070330;28;20529;-69
2021/12/18 05:34:20;;;;;;;84.32;27.70;;;;;;;6.32;100.00;103683.69;5071754;28;20046;-69
2021/12/18 05:39:16;;;;;;;80.95;27.98;;;;;;;6.27;100.00;103685.59;5074136;28;20498;-69
2021/12/18 05:41:42;;;;;;;87.13;28.30;;;;;;;6.23;100.00;103682.28;5074842;28;20086;-69
2021/12/18 05:44:08;;;;;;;88.50;27.85;;;;;;;6.25;100.00;103683.06;5076536;28;20040;-69
2021/12/18 05:46:35;;;;;;;82.93;28.38;;;;;;;6.19;100.00;103686.72;5070921;28;20036;-69
2021/12/18 05:49:01;;;;;;;80.53;26.40;;;;;;;6.26;100.00;103689.91;5082736;28;20556;-69
2021/12/18 05:51:26;;;;;;;99.25;31.00;;;;;;;6.29;100.00;103697.53;5079021;28;20059;-69
2021/12/18 05:53:52;;;;;;;82.13;26.48;;;;;;;6.20;100.00;103692.72;5079081;28;20082;-69
2021/12/18 05:56:18;;;;;;;91.07;26.80;;;;;;;6.20;100.00;103690.97;5078079;28;20070;-69
2021/12/18 05:58:44;;;;;;;80.22;25.85;;;;;;;6.17;100.00;103688.50;5085940;28;20046;-69
2021/12/18 06:01:12;;;;;;;75.78;28.38;;;;;;;6.16;100.00;103694.56;5075879;28;20056;-69
2021/12/18 06:03:38;;;;;;;83.00;26.42;;;;;;;6.15;100.00;103684.31;5074047;28;20021;-69
2021/12/18 06:06:04;;;;;;;94.97;27.35;;;;;;;6.19;100.00;103691.03;5076115;28;20387;-69
2021/12/18 06:08:32;;;;;;;90.05;27.65;;;;;;;6.17;100.00;103687.66;5086661;28;20123;-69
2021/12/18 06:11:04;;;;;;;88.50;27.02;;;;;;;6.17;100.00;103692.81;5073404;28;20033;-69
2021/12/18 06:13:30;;;;;;;79.38;27.77;;;;;;;6.21;100.00;103700.38;5078655;28;20039;-69
2021/12/18 06:15:56;;;;;;;80.90;25.80;;;;;;;6.18;100.00;103699.66;5073904;28;20135;-69
2021/12/18 06:18:21;;;;;;;67.28;24.65;;;;;;;6.14;100.00;103695.50;5084695;28;20109;-69
2021/12/18 06:20:47;;;;;;;79.80;26.02;;;;;;;6.16;100.00;103704.00;5083545;28;20032;-69
2021/12/18 06:23:12;;;;;;;73.05;24.23;;;;;;;6.14;100.00;103705.81;5080386;28;21865;-69
2021/12/18 06:25:38;;;;;;;74.70;25.23;;;;;;;6.13;100.00;103704.97;5080741;28;20051;-69
2021/12/18 06:28:04;;;;;;;74.10;24.13;;;;;;;6.13;100.00;103704.97;5072134;28;20032;-69
2021/12/18 06:30:30;;;;;;;82.50;26.80;;;;;;;6.14;100.00;103705.81;5074854;28;20081;-69
2021/12/18 06:32:55;;;;;;;82.50;26.13;;;;;;;6.13;100.00;103701.56;5078644;28;20402;-69
2021/12/18 06:35:21;;;;;;;88.32;27.27;;;;;;;6.13;100.00;103696.41;5079999;28;20032;-69
2021/12/18 06:37:47;;;;;;;88.80;25.17;;;;;;;6.14;100.00;103700.66;5085880;28;20040;-69
2021/12/18 06:40:12;;;;;;;77.75;24.35;;;;;;;6.13;100.00;103693.84;5073761;28;20062;-69
2021/12/18 06:42:39;;;;;;;75.95;26.67;;;;;;;6.13;100.00;103684.38;5073222;28;20030;-69
2021/12/18 06:45:06;;;;;;;77.00;24.20;;;;;;;6.13;100.00;103693.84;5074187;28;20483;-69
2021/12/18 06:47:32;;;;;;;78.30;25.02;;;;;;;6.14;100.00;103696.38;5071884;28;20487;-69
2021/12/18 06:49:57;;;;;;;93.03;24.98;;;;;;;6.14;100.00;103698.09;5078335;28;20350;-69
2021/12/18 06:52:23;;;;;;;67.63;23.23;;;;;;;6.14;100.00;103688.63;5080912;28;20036;-69
2021/12/18 06:54:49;;;;;;;71.97;23.30;;;;;;;6.16;100.00;103685.97;5081970;28;20039;-69
2021/12/18 06:57:15;;;;;;;71.97;25.02;;;;;;;6.15;100.00;103685.16;5071680;28;20074;-69
2021/12/18 06:59:40;;;;;;;68.43;23.98;;;;;;;6.15;100.00;103679.16;5086770;28;20531;-69
2021/12/18 07:02:06;;;;;;;75.28;24.55;;;;;;;6.16;100.00;103685.97;5073353;28;20034;-69
2021/12/18 07:04:32;;;;;;;72.63;24.88;;;;;;;6.16;100.00;103686.84;5078337;28;20324;-69
2021/12/18 07:06:57;;;;;;;68.32;22.10;;;;;;;6.15;100.00;103685.16;5077906;28;20414;-69
2021/12/18 07:09:23;;;;;;;76.15;24.80;;;;;;;6.16;100.00;103694.56;5074842;28;20110;-69
2021/12/18 07:11:49;;;;;;;78.30;23.23;;;;;;;6.18;100.00;103690.19;5072071;28;20028;-70
2021/12/18 07:14:14;;;;;;;75.68;22.73;;;;;;;6.19;100.00;103683.31;5073975;28;20039;-69
2021/12/18 07:16:40;;;;;;;66.93;21.70;;;;;;;6.17;100.00;103690.25;5077243;28;20032;-69
2021/12/18 07:19:06;;;;;;;66.35;22.83;;;;;;;6.18;100.00;103691.94;5083465;28;20109;-69
2021/12/18 07:21:32;;;;;;;73.05;24.00;;;;;;;6.18;100.00;103697.09;5078929;28;20111;-69
2021/12/18 07:23:57;;;;;;;68.28;22.45;;;;;;;6.16;100.00;103686.84;5078285;28;20105;-69
2021/12/18 07:26:26;;;;;;;66.90;22.10;;;;;;;6.21;100.00;103686.66;5081350;28;20028;-69
2021/12/18 07:28:51;;;;;;;82.55;24.65;;;;;;;6.22;100.00;103690.94;5091140;28;20024;-72
2021/12/18 07:31:17;;;;;;;69.85;22.27;;;;;;;6.27;100.00;103688.16;5074337;28;20085;-73
2021/12/18 07:33:44;;;;;;;63.85;22.73;;;;;;;6.18;100.00;103685.03;5083068;28;20133;-72
2021/12/18 07:36:10;;;;;;;69.38;23.10;;;;;;;6.16;100.00;103688.56;5078586;28;20034;-72
2021/12/18 07:38:37;;;;;;;76.30;25.40;;;;;;;6.14;100.00;103687.78;5080967;28;20086;-71
2021/12/18 07:41:03;;;;;;;83.05;23.85;;;;;;;6.17;100.00;103690.25;5073560;28;20067;-72
2021/12/18 07:43:28;;;;;;;80.25;24.55;;;;;;;6.31;100.00;103680.28;5069069;28;20063;-71
2021/12/18 07:45:54;;;;;;;81.80;25.20;;;;;;;6.24;100.00;103689.13;5079321;28;20029;-72
2021/12/18 07:48:20;;;;;;;80.82;24.65;;;;;;;6.32;100.00;103691.41;5073881;28;20055;-72
2021/12/18 07:50:45;;;;;;;65.05;22.98;;;;;;;6.28;100.00;103701.00;5077495;28;20094;-72
2021/12/18 07:53:11;;;;;;;88.90;29.35;;;;;;;6.29;100.00;103691.53;5076587;28;20093;-71
2021/12/18 07:55:38;;;;;;;75.35;24.10;;;;;;;6.20;100.00;103687.56;5071204;28;20149;-71
2021/12/18 07:58:04;;;;;;;71.00;22.67;;;;;;;6.16;100.00;103681.69;5065830;28;20029;-72
2021/12/18 08:00:30;;;;;;;73.82;22.42;;;;;;;6.14;100.00;103690.34;5069371;28;20037;-73
2021/12/18 08:02:56;;;;;;;75.90;22.80;;;;;;;6.15;100.00;103686.91;5073370;28;20384;-72
2021/12/18 08:05:22;;;;;;;74.47;23.90;;;;;;;6.14;100.00;103688.63;5076758;28;20032;-73
2021/12/18 08:07:47;;;;;;;74.43;22.60;;;;;;;6.17;100.00;103687.66;5056469;28;20130;-71
2021/12/18 08:10:15;;;;;;;74.30;21.77;;;;;;;6.20;100.00;103680.66;5071278;28;20386;-72
2021/12/18 08:12:41;;;;;;;66.20;21.05;;;;;;;6.18;100.00;103682.47;5073937;28;20098;-71
2021/12/18 08:15:07;;;;;;;75.55;22.33;;;;;;;6.18;100.00;103685.03;5078707;28;20115;-72
2021/12/18 08:17:33;;;;;;;62.05;21.02;;;;;;;6.17;100.00;103685.94;5076233;28;20039;-71
2021/12/18 08:20:00;;;;;;;67.72;21.58;;;;;;;6.18;100.00;103687.63;5078510;28;20267;-71
2021/12/18 08:22:25;;;;;;;70.60;21.88;;;;;;;6.18;100.00;103685.03;5076073;28;20479;-72
2021/12/18 08:24:51;;;;;;;66.07;22.23;;;;;;;6.19;100.00;103691.03;5067389;28;20021;-72
2021/12/18 08:27:17;;;;;;;70.07;21.73;;;;;;;6.20;100.00;103688.41;5067887;28;20030;-71
2021/12/18 08:29:43;;;;;;;74.68;22.75;;;;;;;6.26;100.00;103691.66;5078466;28;20040;-71
2021/12/18 08:32:08;;;;;;;66.82;19.85;;;;;;;6.24;100.00;103691.72;5077620;28;21812;-72
2021/12/18 08:34:34;;;;;;;71.28;22.95;;;;;;;6.23;100.00;103687.44;5074632;28;20028;-72
2021/12/18 08:37:00;;;;;;;69.65;21.92;;;;;;;6.24;100.00;103691.72;5071901;28;20040;-71
2021/12/18 08:39:26;;;;;;;65.57;20.63;;;;;;;6.26;100.00;103686.50;5070944;28;20039;-72
2021/12/18 08:41:51;;;;;;;64.88;21.70;;;;;;;6.33;100.00;103690.50;5070663;28;20029;-72
2021/12/18 08:44:17;;;;;;;62.03;21.85;;;;;;;6.28;100.00;103690.69;5070531;28;20111;-71
2021/12/18 08:46:43;;;;;;;66.38;23.02;;;;;;;6.28;100.00;103687.28;5075291;28;20064;-72
2021/12/18 08:49:09;;;;;;;67.97;20.70;;;;;;;6.26;100.00;103687.34;5070835;28;20032;-71
2021/12/18 08:51:38;;;;;;;67.68;21.25;;;;;;;6.27;100.00;103683.00;5072778;28;20521;-72
2021/12/18 08:54:05;;;;;;;71.60;21.45;;;;;;;6.29;100.00;103686.38;5072300;28;20036;-71
2021/12/18 08:56:31;;;;;;;65.65;21.88;;;;;;;6.34;100.00;103697.34;5075494;28;20712;-71
2021/12/18 08:59:00;;;;;;;63.92;21.70;;;;;;;6.35;100.00;103689.56;5078128;28;20036;-71
2021/12/18 09:01:27;;;;;;;85.75;25.05;;;;;;;6.38;100.00;103689.44;5074390;28;20029;-71
2021/12/18 09:03:53;;;;;;;65.78;21.17;;;;;;;6.34;100.00;103690.44;5077869;28;20237;-72
2021/12/18 09:06:19;;;;;;;73.60;22.65;;;;;;;6.32;100.00;103688.84;5078115;28;20024;-71
2021/12/18 09:08:45;;;;;;;70.25;21.73;;;;;;;6.28;100.00;103688.13;5073434;28;20473;-72
2021/12/18 09:11:11;;;;;;;75.60;20.88;;;;;;;6.29;100.00;103699.25;5077887;28;20111;-71
2021/12/18 09:13:36;;;;;;;75.90;22.33;;;;;;;6.29;100.00;103694.09;5084382;28;20035;-71
2021/12/18 09:16:02;;;;;;;60.30;21.00;;;;;;;6.31;100.00;103693.16;5074858;28;21351;-74
2021/12/18 09:18:28;;;;;;;83.32;24.27;;;;;;;6.32;100.00;103681.94;5081686;28;20134;-71
2021/12/18 09:20:53;;;;;;;77.18;21.95;;;;;;;6.34;100.00;103685.28;5088165;28;20111;-72
2021/12/18 09:23:21;;;;;;;71.70;22.15;;;;;;;6.39;100.00;103680.00;5074129;28;20032;-71
2021/12/18 09:25:47;;;;;;;79.40;23.23;;;;;;;6.35;100.00;103688.75;5082577;28;20108;-71
2021/12/18 09:28:13;;;;;;;76.38;23.33;;;;;;;6.36;100.00;103687.81;5076225;28;20123;-71
2021/12/18 09:30:40;;;;;;;77.53;21.80;;;;;;;6.35;100.00;103681.84;5072767;28;20078;-72
2021/12/18 09:33:07;;;;;;;69.88;23.58;;;;;;;6.36;100.00;103685.25;5094156;28;20460;-72
2021/12/18 09:35:32;;;;;;;73.80;22.63;;;;;;;6.39;100.00;103688.56;5091910;28;20032;-72
2021/12/18 09:37:58;;;;;;;69.18;22.67;;;;;;;6.37;100.00;103689.53;5077069;28;20930;-72
2021/12/18 09:40:24;;;;;;;79.18;22.70;;;;;;;6.40;100.00;103689.38;5082007;28;20025;-72
2021/12/18 09:42:49;;;;;;;72.43;22.25;;;;;;;6.41;100.00;103691.06;5069642;28;20122;-72
2021/12/18 09:45:16;;;;;;;84.10;22.63;;;;;;;6.39;100.00;103680.81;5076215;28;20501;-71
2021/12/18 09:47:45;;;;;;;76.25;22.00;;;;;;;6.40;100.00;103685.09;5068664;28;20066;-72
2021/12/18 09:50:11;;;;;;;83.88;24.27;;;;;;;6.43;100.00;103681.53;5072545;28;20086;-72
2021/12/18 09:52:38;;;;;;;85.65;23.17;;;;;;;6.44;100.00;103675.47;5075978;28;20424;-71
2021/12/18 09:55:05;;;;;;;85.72;23.35;;;;;;;6.48;100.00;103687.38;5073517;28;20039;-73
2021/12/18 09:57:32;;;;;;;84.40;23.05;;;;;;;6.46;100.00;103683.16;5070333;28;20117;-72
2021/12/18 09:59:57;;;;;;;84.72;25.42;;;;;;;6.54;100.00;103687.13;5081199;28;20037;-71
2021/12/18 10:02:23;;;;;;;82.75;24.08;;;;;;;6.50;100.00;103685.56;5068532;28;20035;-71
2021/12/18 10:04:49;;;;;;;78.90;23.60;;;;;;;6.51;100.00;103686.41;5077069;28;20383;-72
2021/12/18 10:07:21;;;;;;;81.55;25.33;;;;;;;6.49;100.00;103685.63;5071837;28;20020;-72
2021/12/18 10:09:49;;;;;;;88.50;22.63;;;;;;;6.50;100.00;103683.00;5072652;28;20394;-72
2021/12/18 10:12:22;;;;;;;72.03;21.20;;;;;;;6.51;100.00;103676.91;5072174;28;20052;-71
2021/12/18 10:14:56;;;;;;;73.60;19.95;;;;;;;6.54;100.00;103674.22;5074977;28;20032;-71
2021/12/18 10:17:25;;;;;;;66.82;20.58;;;;;;;6.52;100.00;103670.06;5069026;28;20502;-72
2021/12/18 10:19:53;;;;;;;74.50;23.52;;;;;;;6.56;100.00;103666.44;5054667;28;20040;-72
2021/12/18 10:22:18;;;;;;;72.07;20.77;;;;;;;6.56;100.00;103667.28;5080954;28;20397;-72
2021/12/18 10:24:58;;;;;;;73.90;23.60;;;;;;;6.55;100.00;103663.00;5076688;28;20032;-72
2021/12/18 10:27:26;;;;;;;66.10;19.58;;;;;;;6.57;100.00;103660.38;5075060;28;20090;-72
2021/12/18 10:30:06;;;;;;;63.60;18.70;;;;;;;6.56;100.00;103656.97;5060284;28;20028;-72
2021/12/18 10:32:32;;;;;;;63.95;19.50;;;;;;;6.58;100.00;103662.06;5074129;28;20576;-71
2021/12/18 10:34:59;;;;;;;58.20;18.33;;;;;;;6.58;100.00;103659.50;5080227;28;20260;-71
2021/12/18 10:37:29;;;;;;;54.42;17.98;;;;;;;6.58;100.00;103655.16;5079736;28;20078;-72
2021/12/18 10:39:54;;;;;;;53.40;17.00;;;;;;;6.60;100.00;103652.53;5073372;28;20101;-72
2021/12/18 10:42:39;;;;;;;58.47;16.75;;;;;;;6.60;100.00;103657.69;5077584;28;20541;-72
2021/12/18 10:45:07;;;;;;;56.75;18.85;;;;;;;6.63;100.00;103647.25;5072413;28;20494;-72
2021/12/18 10:47:56;;;;;;;64.45;17.98;;;;;;;6.67;100.00;103646.25;5075268;28;20067;-72
2021/12/18 10:50:40;;;;;;;60.35;18.10;;;;;;;6.68;100.00;103644.50;5076741;28;20044;-72
2021/12/18 10:53:11;;;;;;;65.60;18.35;;;;;;;6.68;100.00;103641.91;5068768;28;20036;-72
2021/12/18 10:55:47;;;;;;;64.57;18.75;;;;;;;6.70;100.00;103643.50;5075030;28;20169;-71
2021/12/18 10:58:17;;;;;;;69.05;20.17;;;;;;;6.83;100.00;103633.56;5070957;28;20115;-72
2021/12/18 11:00:47;;;;;;;66.15;19.38;;;;;;;6.73;100.00;103638.25;5072108;28;20037;-72
2021/12/18 11:03:35;;;;;;;61.08;18.00;;;;;;;6.70;100.00;103645.25;5066623;28;20051;-72
2021/12/18 11:06:09;;;;;;;64.38;20.13;;;;;;;6.70;100.00;103637.53;5073625;28;20029;-71
2021/12/18 11:08:51;;;;;;;64.32;20.42;;;;;;;6.75;100.00;103628.72;5064679;28;20032;-72
2021/12/18 11:14:07;;;;;;;53.28;16.80;;;;;;;6.73;100.00;103627.94;5066812;28;20557;-72
2021/12/18 11:16:35;;;;;;;66.20;18.23;;;;;;;6.75;100.00;103631.28;5071429;28;20152;-72
2021/12/18 11:19:04;;;;;;;62.17;18.75;;;;;;;6.77;100.00;103624.31;5078436;28;20111;-72
2021/12/18 11:21:30;;;;;;;65.95;18.02;;;;;;;6.79;100.00;103613.94;5067913;28;20046;-72
2021/12/18 11:24:01;;;;;;;65.93;21.10;;;;;;;6.80;100.00;103613.06;5080508;28;20438;-72
2021/12/18 11:26:41;;;;;;;66.15;19.40;;;;;;;6.81;100.00;103610.41;5066653;28;20039;-73
2021/12/18 11:29:22;;;;;;;54.20;17.42;;;;;;;6.85;100.00;103611.09;5071080;28;20024;-71
2021/12/18 11:31:48;;;;;;;61.22;18.48;;;;;;;6.84;100.00;103609.44;5069587;28;20043;-72
2021/12/18 11:34:15;;;;;;;56.05;18.00;;;;;;;6.87;100.00;103611.06;5091958;28;20036;-72
2021/12/18 11:36:43;;;;;;;68.40;19.73;;;;;;;6.87;100.00;103604.16;5079870;28;20394;-72
2021/12/18 11:39:11;;;;;;;58.35;18.27;;;;;;;6.88;100.00;103602.44;5068937;28;20494;-72
2021/12/18 11:41:39;;;;;;;77.53;22.60;;;;;;;6.92;100.00;103602.22;5068060;28;20047;-72
2021/12/18 11:44:39;;;;;;;71.57;20.75;;;;;;;6.91;100.00;103594.53;5070694;28;20047;-72
2021/12/18 11:47:47;;;;;;;73.05;19.83;;;;;;;6.93;100.00;103603.91;5064593;28;20060;-71
2021/12/18 11:50:19;;;;;;;74.40;21.58;;;;;;;6.91;100.00;103597.97;5062771;28;20410;-72
2021/12/18 11:53:03;;;;;;;74.93;19.65;;;;;;;6.94;100.00;103602.16;5073162;28;20055;-72
2021/12/18 11:55:33;;;;;;;64.68;19.95;;;;;;;6.93;100.00;103601.34;5066324;28;20041;-72
2021/12/18 11:58:02;;;;;;;66.93;18.45;;;;;;;6.97;100.00;103596.88;5077612;28;20039;-72
2021/12/18 12:00:35;;;;;;;58.08;18.67;;;;;;;6.96;100.00;103592.63;5061148;28;20040;-71